createdAt,value
2017-09-03T00:02:03.312Z,14.10
2017-09-03T00:04:30.786Z,14.10
2017-09-03T00:06:58.265Z,14.10
2017-09-03T00:09:25.730Z,14.00
2017-09-03T00:11:53.204Z,14.00
2017-09-03T00:14:20.676Z,14.10
2017-09-03T00:16:48.170Z,14.10
2017-09-03T00:19:16.494Z,14.00
2017-09-03T00:21:43.949Z,14.00
2017-09-03T00:24:11.465Z,14.10
2017-09-03T00:26:38.929Z,14.10
2017-09-03T00:29:06.406Z,14.10
2017-09-03T00:31:33.880Z,14.10
2017-09-03T00:34:01.343Z,14.10
2017-09-03T00:36:28.969Z,14.00
2017-09-03T00:38:56.437Z,13.90
2017-09-03T00:41:24.025Z,13.90
2017-09-03T00:43:51.672Z,14.00
2017-09-03T00:46:19.138Z,13.90
2017-09-03T00:48:46.615Z,13.70
2017-09-03T00:51:14.081Z,13.70
2017-09-03T00:53:41.701Z,13.80
2017-09-03T00:56:09.170Z,13.80
2017-09-03T00:58:36.641Z,13.90
2017-09-03T01:01:04.230Z,13.80
2017-09-03T01:03:31.710Z,13.80
2017-09-03T01:05:59.171Z,13.80
2017-09-03T01:08:26.650Z,13.80
2017-09-03T01:13:28.269Z,13.80
2017-09-03T01:15:55.790Z,13.80
2017-09-03T01:18:23.257Z,13.70
2017-09-03T01:20:50.745Z,13.70
2017-09-03T01:23:18.201Z,13.80
2017-09-03T01:25:45.678Z,13.70
2017-09-03T01:28:13.189Z,13.70
2017-09-03T01:30:40.665Z,13.60
2017-09-03T01:33:08.133Z,13.60
2017-09-03T01:35:35.622Z,13.40
2017-09-03T01:38:03.089Z,13.40
2017-09-03T01:40:30.548Z,13.40
2017-09-03T01:42:58.030Z,13.30
2017-09-03T01:45:25.490Z,13.30
2017-09-03T01:47:52.981Z,13.20
2017-09-03T01:50:20.551Z,13.20
2017-09-03T01:52:48.029Z,13.30
2017-09-03T01:55:15.497Z,13.40
2017-09-03T01:57:42.963Z,13.40
2017-09-03T02:00:10.437Z,13.40
2017-09-03T02:02:37.909Z,13.40
2017-09-03T02:05:05.944Z,13.30
2017-09-03T02:07:33.481Z,13.40
2017-09-03T02:10:00.945Z,13.40
2017-09-03T02:12:28.417Z,13.40
2017-09-03T02:14:55.901Z,13.30
2017-09-03T02:17:23.377Z,13.20
2017-09-03T02:19:50.855Z,13.10
2017-09-03T02:22:18.381Z,13.00
2017-09-03T02:24:45.852Z,13.00
2017-09-03T02:27:13.318Z,12.80
2017-09-03T02:29:40.806Z,12.80
2017-09-03T02:32:08.272Z,12.80
2017-09-03T02:34:36.525Z,12.70
2017-09-03T02:37:03.978Z,12.70
2017-09-03T02:39:31.453Z,12.70
2017-09-03T02:41:58.912Z,12.70
2017-09-03T02:44:26.394Z,12.70
2017-09-03T02:46:53.868Z,12.70
2017-09-03T02:49:21.350Z,12.90
2017-09-03T02:51:48.832Z,13.00
2017-09-03T02:54:16.310Z,13.00
2017-09-03T02:56:43.796Z,13.00
2017-09-03T02:59:11.265Z,13.00
2017-09-03T03:01:38.752Z,13.10
2017-09-03T03:04:06.217Z,13.10
2017-09-03T03:06:33.694Z,12.90
2017-09-03T03:09:01.171Z,13.00
2017-09-03T03:11:28.645Z,13.00
2017-09-03T03:13:56.121Z,13.10
2017-09-03T03:16:24.360Z,13.10
2017-09-03T03:18:51.818Z,13.10
2017-09-03T03:21:19.336Z,13.10
2017-09-03T03:23:46.801Z,13.00
2017-09-03T03:26:14.272Z,13.00
2017-09-03T03:28:41.737Z,13.10
2017-09-03T03:31:09.218Z,13.10
2017-09-03T03:33:36.682Z,12.90
2017-09-03T03:36:04.157Z,13.00
2017-09-03T03:38:31.622Z,12.90
2017-09-03T03:40:59.102Z,12.90
2017-09-03T03:43:26.556Z,12.90
2017-09-03T03:45:54.021Z,12.90
2017-09-03T03:48:21.494Z,13.00
2017-09-03T03:50:48.957Z,13.00
2017-09-03T03:53:16.420Z,12.90
2017-09-03T03:55:43.873Z,12.80
2017-09-03T03:58:11.539Z,12.80
2017-09-03T04:00:39.010Z,12.80
2017-09-03T04:03:06.493Z,12.90
2017-09-03T04:05:33.956Z,12.80
2017-09-03T04:08:01.533Z,12.70
2017-09-03T04:10:28.996Z,12.60
2017-09-03T04:12:56.460Z,12.50
2017-09-03T04:15:24.049Z,12.50
2017-09-03T04:17:51.522Z,12.50
2017-09-03T04:20:18.998Z,12.40
2017-09-03T04:22:46.473Z,12.40
2017-09-03T04:25:13.946Z,12.50
2017-09-03T04:27:41.420Z,12.50
2017-09-03T04:30:08.882Z,12.50
2017-09-03T04:32:36.363Z,12.50
2017-09-03T04:35:03.829Z,12.50
2017-09-03T04:37:31.308Z,12.30
2017-09-03T04:39:58.772Z,12.30
2017-09-03T04:42:26.245Z,12.30
2017-09-03T04:44:53.714Z,12.30
2017-09-03T04:47:21.197Z,12.30
2017-09-03T04:49:48.769Z,12.20
2017-09-03T04:52:16.315Z,12.20
2017-09-03T04:54:43.790Z,12.10
2017-09-03T04:57:11.257Z,12.10
2017-09-03T04:59:38.730Z,12.10
2017-09-03T05:02:06.201Z,12.10
2017-09-03T05:04:33.681Z,12.20
2017-09-03T05:07:01.148Z,12.10
2017-09-03T05:09:28.630Z,12.20
2017-09-03T05:11:56.101Z,12.30
2017-09-03T05:14:23.581Z,12.30
2017-09-03T05:16:51.056Z,12.20
2017-09-03T05:19:18.530Z,12.20
2017-09-03T05:21:46.134Z,12.20
2017-09-03T05:24:13.616Z,12.20
2017-09-03T05:26:41.222Z,12.00
2017-09-03T05:29:08.726Z,12.10
2017-09-03T05:31:36.193Z,12.20
2017-09-03T05:34:03.658Z,12.10
2017-09-03T05:36:31.133Z,12.10
2017-09-03T05:38:58.602Z,12.10
2017-09-03T05:41:26.091Z,12.10
2017-09-03T05:46:27.429Z,12.20
2017-09-03T05:48:54.996Z,12.30
2017-09-03T05:51:22.557Z,12.30
2017-09-03T05:53:50.033Z,12.30
2017-09-03T05:56:17.496Z,12.40
2017-09-03T05:58:44.965Z,12.40
2017-09-03T06:01:12.495Z,12.40
2017-09-03T06:03:39.965Z,12.50
2017-09-03T06:06:08.187Z,12.60
2017-09-03T06:08:35.675Z,12.50
2017-09-03T06:11:03.135Z,12.50
2017-09-03T06:13:30.593Z,12.40
2017-09-03T06:15:58.076Z,12.50
2017-09-03T06:18:25.665Z,12.60
2017-09-03T06:20:53.157Z,12.70
2017-09-03T06:23:21.377Z,12.70
2017-09-03T06:25:48.866Z,12.60
2017-09-03T06:28:16.454Z,12.60
2017-09-03T06:30:43.918Z,12.70
2017-09-03T06:33:11.398Z,12.90
2017-09-03T06:35:39.631Z,12.80
2017-09-03T06:38:07.104Z,12.80
2017-09-03T06:40:34.565Z,12.90
2017-09-03T06:43:02.066Z,12.90
2017-09-03T06:45:29.528Z,13.00
2017-09-03T06:47:56.992Z,13.20
2017-09-03T06:50:24.509Z,13.20
2017-09-03T06:52:52.138Z,13.10
2017-09-03T06:55:19.605Z,13.20
2017-09-03T06:57:47.086Z,13.20
2017-09-03T07:00:14.553Z,13.40
2017-09-03T07:02:42.030Z,13.60
2017-09-03T07:05:09.605Z,13.60
2017-09-03T07:07:37.088Z,13.60
2017-09-03T07:10:04.554Z,13.70
2017-09-03T07:12:32.021Z,13.60
2017-09-03T07:14:59.522Z,13.70
2017-09-03T07:17:26.997Z,13.70
2017-09-03T07:19:54.472Z,13.80
2017-09-03T07:22:21.956Z,14.00
2017-09-03T07:24:49.450Z,14.20
2017-09-03T07:27:16.904Z,14.30
2017-09-03T07:29:44.457Z,14.30
2017-09-03T07:32:11.948Z,14.40
2017-09-03T07:34:39.420Z,14.50
2017-09-03T07:37:06.900Z,14.60
2017-09-03T07:39:34.362Z,14.60
2017-09-03T07:42:01.840Z,14.60
2017-09-03T07:44:29.305Z,14.60
2017-09-03T07:46:56.782Z,14.60
2017-09-03T07:49:24.268Z,14.70
2017-09-03T07:51:51.744Z,15.00
2017-09-03T07:54:19.228Z,15.20
2017-09-03T07:56:46.696Z,15.20
2017-09-03T07:59:14.165Z,15.40
2017-09-03T08:01:41.637Z,15.60
2017-09-03T08:04:09.146Z,15.80
2017-09-03T08:06:36.601Z,15.90
2017-09-03T08:09:04.086Z,15.90
2017-09-03T08:11:31.750Z,15.90
2017-09-03T08:13:59.222Z,16.10
2017-09-03T08:16:26.702Z,16.00
2017-09-03T08:18:54.152Z,16.20
2017-09-03T08:21:21.810Z,16.30
2017-09-03T08:23:49.398Z,16.30
2017-09-03T08:26:17.481Z,16.40
2017-09-03T08:28:44.980Z,16.50
2017-09-03T08:31:12.435Z,16.50
2017-09-03T08:33:40.093Z,16.60
2017-09-03T08:36:07.549Z,16.70
2017-09-03T08:38:35.021Z,16.90
2017-09-03T08:41:02.507Z,16.80
2017-09-03T08:43:29.995Z,16.90
2017-09-03T08:45:57.938Z,17.00
2017-09-03T08:48:25.397Z,17.00
2017-09-03T08:50:52.873Z,17.10
2017-09-03T08:53:20.340Z,17.00
2017-09-03T08:55:47.824Z,17.00
2017-09-03T08:58:15.286Z,17.10
2017-09-03T09:00:42.757Z,17.20
2017-09-03T09:03:10.242Z,17.00
2017-09-03T09:05:37.705Z,17.20
2017-09-03T09:08:05.175Z,17.40
2017-09-03T09:10:32.838Z,17.40
2017-09-03T09:13:00.466Z,17.60
2017-09-03T09:15:27.950Z,17.70
2017-09-03T09:17:55.416Z,17.90
2017-09-03T09:20:22.898Z,17.90
2017-09-03T09:22:50.382Z,17.80
2017-09-03T09:25:17.865Z,17.90
2017-09-03T09:27:45.341Z,17.90
2017-09-03T09:30:12.817Z,18.00
2017-09-03T09:32:40.280Z,18.20
2017-09-03T09:35:07.857Z,18.30
2017-09-03T09:37:35.325Z,18.30
2017-09-03T09:40:02.818Z,18.30
2017-09-03T09:42:30.293Z,18.30
2017-09-03T09:44:57.839Z,18.50
2017-09-03T09:47:25.310Z,18.70
2017-09-03T09:49:52.805Z,18.90
2017-09-03T09:52:20.318Z,19.10
2017-09-03T09:54:47.844Z,19.10
2017-09-03T09:57:15.325Z,19.00
2017-09-03T09:59:42.798Z,18.90
2017-09-03T10:02:10.280Z,19.00
2017-09-03T10:04:37.781Z,19.00
2017-09-03T10:07:05.241Z,19.20
2017-09-03T10:09:32.729Z,19.40
2017-09-03T10:12:00.347Z,19.30
2017-09-03T10:14:27.845Z,19.30
2017-09-03T10:16:55.310Z,19.40
2017-09-03T10:19:22.784Z,19.60
2017-09-03T10:21:50.324Z,19.70
2017-09-03T10:24:17.789Z,19.70
2017-09-03T10:26:45.266Z,19.70
2017-09-03T10:29:12.754Z,19.70
2017-09-03T10:31:40.237Z,19.80
2017-09-03T10:34:07.713Z,19.60
2017-09-03T10:36:35.178Z,19.80
2017-09-03T10:39:02.769Z,20.00
2017-09-03T10:41:30.251Z,20.00
2017-09-03T10:43:57.717Z,20.20
2017-09-03T10:46:25.226Z,20.30
2017-09-03T10:48:52.739Z,20.40
2017-09-03T10:51:20.211Z,20.60
2017-09-03T10:53:47.691Z,20.70
2017-09-03T10:56:15.177Z,20.60
2017-09-03T10:58:42.654Z,20.60
2017-09-03T11:01:10.122Z,20.70
2017-09-03T11:03:37.581Z,20.90
2017-09-03T11:06:05.059Z,20.80
2017-09-03T11:08:32.537Z,20.80
2017-09-03T11:11:00.100Z,20.90
2017-09-03T11:13:27.566Z,20.80
2017-09-03T11:15:55.038Z,20.90
2017-09-03T11:18:22.496Z,20.80
2017-09-03T11:20:50.021Z,20.70
2017-09-03T11:23:17.505Z,20.50
2017-09-03T11:25:44.997Z,20.40
2017-09-03T11:28:12.486Z,20.40
2017-09-03T11:30:39.969Z,20.50
2017-09-03T11:33:07.463Z,20.40
2017-09-03T11:35:34.929Z,20.60
2017-09-03T11:38:02.421Z,20.80
2017-09-03T11:40:29.905Z,20.90
2017-09-03T11:42:57.366Z,21.00
2017-09-03T11:45:24.857Z,21.20
2017-09-03T11:47:52.315Z,21.30
2017-09-03T11:50:19.814Z,21.50
2017-09-03T11:52:47.373Z,21.50
2017-09-03T11:55:14.856Z,21.40
2017-09-03T11:57:42.363Z,21.70
2017-09-03T12:00:09.836Z,22.10
2017-09-03T12:02:38.205Z,22.50
2017-09-03T12:05:05.674Z,22.90
2017-09-03T12:07:33.135Z,23.30
2017-09-03T12:10:00.601Z,23.80
2017-09-03T12:12:28.086Z,24.40
2017-09-03T12:14:55.550Z,24.70
2017-09-03T12:17:23.030Z,24.70
2017-09-03T12:19:50.490Z,24.50
2017-09-03T12:22:18.468Z,24.50
2017-09-03T12:24:50.022Z,24.40
2017-09-03T12:27:17.478Z,23.80
2017-09-03T12:29:44.942Z,23.60
2017-09-03T12:32:12.397Z,23.50
2017-09-03T12:34:40.021Z,23.50
2017-09-03T12:37:07.548Z,23.40
2017-09-03T12:39:35.012Z,23.40
2017-09-03T12:42:03.277Z,23.70
2017-09-03T12:44:30.760Z,24.20
2017-09-03T12:46:58.322Z,24.20
2017-09-03T12:49:25.781Z,24.10
2017-09-03T12:51:53.293Z,24.50
2017-09-03T12:54:20.754Z,24.80
2017-09-03T12:56:48.222Z,24.70
2017-09-03T12:59:15.728Z,24.40
2017-09-03T13:01:43.232Z,24.30
2017-09-03T13:04:10.734Z,24.30
2017-09-03T13:06:38.257Z,24.10
2017-09-03T13:09:05.737Z,23.60
2017-09-03T13:11:33.262Z,23.60
2017-09-03T13:14:00.753Z,23.70
2017-09-03T13:16:28.233Z,23.70
2017-09-03T13:18:55.849Z,23.70
2017-09-03T13:21:23.321Z,24.00
2017-09-03T13:23:50.787Z,23.90
2017-09-03T13:26:18.255Z,23.70
2017-09-03T13:28:45.857Z,23.90
2017-09-03T13:31:13.322Z,23.90
2017-09-03T13:33:40.817Z,24.20
2017-09-03T13:36:08.301Z,24.40
2017-09-03T13:41:09.755Z,24.60
2017-09-03T13:43:37.321Z,24.40
2017-09-03T13:46:04.848Z,24.80
2017-09-03T13:48:32.322Z,25.10
2017-09-03T13:50:59.797Z,25.40
2017-09-03T13:53:27.262Z,25.40
2017-09-03T13:55:54.730Z,25.10
2017-09-03T13:58:22.187Z,24.90
2017-09-03T14:00:49.665Z,25.00
2017-09-03T14:03:17.162Z,24.90
2017-09-03T14:05:44.609Z,24.80
2017-09-03T14:08:12.208Z,24.50
2017-09-03T14:10:39.662Z,24.40
2017-09-03T14:13:07.144Z,24.00
2017-09-03T14:15:34.627Z,23.40
2017-09-03T14:18:02.204Z,23.00
2017-09-03T14:20:29.667Z,22.70
2017-09-03T14:22:57.161Z,23.10
2017-09-03T14:25:24.625Z,23.30
2017-09-03T14:27:52.102Z,23.40
2017-09-03T14:30:19.581Z,23.30
2017-09-03T14:32:47.071Z,23.50
2017-09-03T14:35:14.717Z,23.20
2017-09-03T14:37:42.221Z,23.20
2017-09-03T14:40:09.686Z,23.20
2017-09-03T14:42:37.161Z,23.10
2017-09-03T14:45:04.643Z,23.10
2017-09-03T14:47:32.165Z,22.90
2017-09-03T14:49:59.618Z,22.70
2017-09-03T14:52:27.072Z,22.60
2017-09-03T14:54:54.633Z,22.50
2017-09-03T14:57:22.080Z,22.20
2017-09-03T14:59:49.590Z,22.00
2017-09-03T15:02:17.104Z,21.90
2017-09-03T15:04:44.661Z,21.60
2017-09-03T15:07:12.912Z,21.60
2017-09-03T15:09:40.540Z,21.60
2017-09-03T15:12:07.995Z,21.50
2017-09-03T15:14:35.465Z,21.60
2017-09-03T15:17:02.931Z,21.60
2017-09-03T15:19:30.404Z,21.70
2017-09-03T15:21:57.972Z,21.80
2017-09-03T15:24:25.464Z,21.90
2017-09-03T15:26:52.942Z,22.00
2017-09-03T15:29:20.417Z,22.00
2017-09-03T15:31:48.093Z,21.80
2017-09-03T15:34:15.552Z,21.70
2017-09-03T15:36:43.856Z,21.30
2017-09-03T15:39:11.858Z,21.30
2017-09-03T15:41:39.426Z,21.30
2017-09-03T15:44:07.081Z,21.30
2017-09-03T15:46:34.563Z,21.30
2017-09-03T15:49:02.026Z,21.20
2017-09-03T15:51:29.489Z,21.10
2017-09-03T15:53:56.991Z,21.10
2017-09-03T15:56:24.653Z,21.10
2017-09-03T15:58:52.140Z,21.00
2017-09-03T16:01:19.665Z,21.00
2017-09-03T16:03:47.134Z,21.00
2017-09-03T16:06:14.664Z,20.90
2017-09-03T16:08:42.149Z,20.90
2017-09-03T16:11:09.645Z,21.00
2017-09-03T16:13:37.251Z,21.10
2017-09-03T16:16:04.715Z,21.10
2017-09-03T16:18:32.188Z,21.10
2017-09-03T16:20:59.663Z,21.10
2017-09-03T16:23:27.447Z,21.20
2017-09-03T16:25:54.911Z,21.20
2017-09-03T16:28:22.409Z,21.30
2017-09-03T16:43:49.925Z,21.30
2017-09-03T16:46:17.555Z,21.10
2017-09-03T16:48:45.126Z,21.10
2017-09-03T16:51:12.625Z,21.10
2017-09-03T16:53:40.105Z,21.10
2017-09-03T16:56:07.570Z,21.20
2017-09-03T16:58:35.149Z,21.10
2017-09-03T17:01:02.618Z,21.10
2017-09-03T17:03:30.070Z,21.10
2017-09-03T17:05:57.705Z,21.10
2017-09-03T17:08:25.174Z,21.00
2017-09-03T17:10:52.658Z,21.00
2017-09-03T17:13:20.125Z,21.00
2017-09-03T17:15:47.597Z,20.90
2017-09-03T17:18:15.155Z,20.90
2017-09-03T17:20:43.533Z,20.90
2017-09-03T17:23:11.106Z,20.90
2017-09-03T17:25:38.688Z,20.90
2017-09-03T17:28:06.210Z,20.90
2017-09-03T17:30:37.259Z,20.80
2017-09-03T17:33:07.485Z,20.80
2017-09-03T17:35:37.653Z,20.70
2017-09-03T17:38:24.722Z,20.60
2017-09-03T17:40:53.896Z,20.60
2017-09-03T17:43:21.350Z,20.50
2017-09-03T17:45:49.605Z,20.50
2017-09-03T17:48:17.098Z,20.50
2017-09-03T17:50:44.561Z,20.40
2017-09-03T17:53:12.074Z,20.40
2017-09-03T17:55:40.301Z,20.30
2017-09-03T17:58:07.895Z,20.30
2017-09-03T18:00:35.364Z,20.20
2017-09-03T18:03:04.077Z,20.20
2017-09-03T18:05:31.620Z,20.20
2017-09-03T18:07:59.109Z,20.20
2017-09-03T18:10:26.613Z,20.20
2017-09-03T18:12:54.077Z,20.10
2017-09-03T18:15:22.360Z,20.00
2017-09-03T18:17:50.606Z,20.00
2017-09-03T18:20:18.097Z,20.00
2017-09-03T18:22:45.596Z,19.90
2017-09-03T18:25:13.057Z,19.80
2017-09-03T18:27:40.526Z,19.70
2017-09-03T18:30:08.181Z,19.70
2017-09-03T18:32:35.677Z,19.70
2017-09-03T18:35:03.224Z,19.60
2017-09-03T18:37:30.711Z,19.60
2017-09-03T18:39:58.228Z,19.50
2017-09-03T18:42:26.518Z,19.50
2017-09-03T18:44:53.973Z,19.40
2017-09-03T18:47:21.449Z,19.40
2017-09-03T18:49:49.709Z,19.40
2017-09-03T18:52:36.664Z,19.30
2017-09-03T18:55:04.149Z,19.30
2017-09-03T18:57:37.444Z,19.20
2017-09-03T19:00:08.816Z,19.20
2017-09-03T19:02:37.772Z,19.10
2017-09-03T19:05:05.777Z,19.10
2017-09-03T19:07:33.178Z,19.00
2017-09-03T19:10:01.262Z,19.00
2017-09-03T19:12:28.817Z,19.00
2017-09-03T19:14:56.278Z,19.00
2017-09-03T19:17:23.750Z,19.00
2017-09-03T19:19:51.230Z,19.00
2017-09-03T19:22:18.733Z,18.90
2017-09-03T19:24:46.266Z,18.90
2017-09-03T19:27:13.763Z,18.90
2017-09-03T19:29:41.297Z,18.90
2017-09-03T19:32:08.772Z,18.90
2017-09-03T19:34:36.261Z,18.80
2017-09-03T19:37:03.735Z,18.80
2017-09-03T19:39:31.218Z,18.90
2017-09-03T19:41:58.711Z,18.80
2017-09-03T19:44:26.313Z,18.80
2017-09-03T19:46:53.937Z,18.70
2017-09-03T19:49:21.417Z,18.70
2017-09-03T19:51:48.894Z,18.70
2017-09-03T19:54:16.365Z,18.60
2017-09-03T19:56:43.852Z,18.50
2017-09-03T20:01:45.431Z,18.40
2017-09-03T20:04:13.005Z,18.40
2017-09-03T20:06:40.586Z,18.30
2017-09-03T20:09:08.349Z,18.30
2017-09-03T20:11:35.812Z,18.30
2017-09-03T20:14:03.285Z,18.30
2017-09-03T20:16:30.778Z,18.20
2017-09-03T20:18:58.389Z,18.20
2017-09-03T20:21:25.862Z,18.20
2017-09-03T20:23:53.343Z,18.20
2017-09-03T20:26:20.999Z,18.20
2017-09-03T20:28:54.756Z,18.20
2017-09-03T20:31:22.305Z,18.20
2017-09-03T20:33:49.798Z,18.20
2017-09-03T20:36:17.256Z,18.20
2017-09-03T20:38:44.734Z,18.20
2017-09-03T20:41:12.238Z,18.20
2017-09-03T20:43:39.698Z,18.20
2017-09-03T20:46:07.157Z,18.20
2017-09-03T20:48:34.625Z,18.10
2017-09-03T20:51:02.161Z,18.10
2017-09-03T20:53:29.613Z,18.10
2017-09-03T20:55:57.089Z,18.10
2017-09-03T20:58:24.568Z,18.10
2017-09-03T21:00:52.038Z,18.00
2017-09-03T21:03:19.515Z,18.00
2017-09-03T21:05:46.977Z,17.90
2017-09-03T21:08:14.441Z,17.90
2017-09-03T21:10:41.916Z,17.90
2017-09-03T21:13:09.377Z,17.80
2017-09-03T21:15:36.910Z,17.80
2017-09-03T21:18:04.369Z,17.80
2017-09-03T21:20:32.151Z,17.80
2017-09-03T21:22:59.615Z,17.80
2017-09-03T21:25:27.074Z,17.70
2017-09-03T21:27:54.549Z,17.70
2017-09-03T21:30:22.017Z,17.60
2017-09-03T21:32:49.517Z,17.60
2017-09-03T21:35:16.977Z,17.60
2017-09-03T21:37:44.450Z,17.50
2017-09-03T21:40:11.917Z,17.50
2017-09-03T21:42:39.384Z,17.40
2017-09-03T21:45:07.638Z,17.30
2017-09-03T21:47:35.164Z,17.30
2017-09-03T21:50:02.629Z,17.40
2017-09-03T21:52:30.097Z,17.30
2017-09-03T21:54:57.672Z,17.30
2017-09-03T21:57:25.137Z,17.30
2017-09-03T21:59:52.634Z,17.30
2017-09-03T22:02:20.090Z,17.20
2017-09-03T22:04:47.562Z,17.20
2017-09-03T22:07:15.110Z,17.20
2017-09-03T22:09:42.642Z,17.20
2017-09-03T22:12:10.106Z,17.10
2017-09-03T22:14:37.565Z,17.10
2017-09-03T22:17:05.041Z,17.00
2017-09-03T22:19:32.737Z,17.00
2017-09-03T22:22:00.197Z,16.90
2017-09-03T22:24:27.665Z,16.90
2017-09-03T22:26:55.139Z,16.90
2017-09-03T22:29:22.592Z,16.80
2017-09-03T22:31:50.809Z,16.70
2017-09-03T22:34:18.286Z,16.70
2017-09-03T22:36:45.788Z,16.70
2017-09-03T22:39:14.039Z,16.60
2017-09-03T22:41:41.503Z,16.60
2017-09-03T22:44:09.131Z,16.60
2017-09-03T22:46:36.673Z,16.50
2017-09-03T22:49:04.131Z,16.60
2017-09-03T22:51:31.593Z,16.50
2017-09-03T22:53:59.154Z,16.50
2017-09-03T22:56:26.656Z,16.40
2017-09-03T22:58:54.216Z,16.40
2017-09-03T23:01:21.685Z,16.40
2017-09-03T23:03:49.861Z,16.40
2017-09-03T23:06:17.439Z,16.30
2017-09-03T23:08:45.058Z,16.30
2017-09-03T23:11:12.509Z,16.30
2017-09-03T23:13:39.984Z,16.20
2017-09-03T23:16:08.289Z,16.10
2017-09-03T23:18:35.768Z,16.00
2017-09-03T23:21:03.232Z,16.00
2017-09-03T23:23:30.709Z,16.00
2017-09-03T23:25:58.173Z,16.00
2017-09-03T23:28:25.634Z,15.90
2017-09-03T23:30:53.101Z,16.00
2017-09-03T23:33:20.794Z,16.00
2017-09-03T23:35:48.256Z,16.00
2017-09-03T23:38:15.729Z,16.00
2017-09-03T23:40:43.201Z,16.00
2017-09-03T23:43:10.698Z,16.00
2017-09-03T23:45:38.245Z,16.00
2017-09-03T23:48:05.778Z,15.90
2017-09-03T23:50:33.256Z,15.90
2017-09-03T23:53:00.851Z,15.90
2017-09-03T23:55:28.317Z,15.80
2017-09-03T23:57:55.769Z,15.80
